createdAt,value
2019-05-12T00:01:31.459Z,2.00
2019-05-12T00:04:21.725Z,0.60
2019-05-12T00:07:10.814Z,0.60
2019-05-12T00:10:02.572Z,1.27
2019-05-12T00:12:53.628Z,1.27
2019-05-12T00:15:44.285Z,0.80
2019-05-12T00:18:37.874Z,0.93
2019-05-12T00:21:31.435Z,1.37
2019-05-12T00:24:22.592Z,0.57
2019-05-12T00:27:23.247Z,0.60
2019-05-12T00:30:38.497Z,1.60
2019-05-12T00:33:31.642Z,0.90
2019-05-12T00:36:34.244Z,0.60
2019-05-12T00:39:27.884Z,0.70
2019-05-12T00:42:18.350Z,1.90
2019-05-12T00:45:12.254Z,1.90
2019-05-12T00:48:01.603Z,1.13
2019-05-12T00:50:52.691Z,0.70
2019-05-12T00:53:47.928Z,2.67
2019-05-12T00:56:41.636Z,1.00
2019-05-12T00:59:38.344Z,0.60
2019-05-12T01:02:28.797Z,0.73
2019-05-12T01:05:19.566Z,0.83
2019-05-12T01:08:18.531Z,1.50
2019-05-12T01:11:13.482Z,2.93
2019-05-12T01:14:04.678Z,0.70
2019-05-12T01:16:58.014Z,0.90
2019-05-12T01:19:48.770Z,2.20
2019-05-12T01:22:40.346Z,0.60
2019-05-12T01:25:31.752Z,1.07
2019-05-12T01:28:23.887Z,2.80
2019-05-12T01:31:19.393Z,0.70
2019-05-12T01:34:11.545Z,1.00
2019-05-12T01:37:21.136Z,0.73
2019-05-12T01:40:19.027Z,2.57
2019-05-12T01:43:09.271Z,0.83
2019-05-12T01:46:03.932Z,0.80
2019-05-12T01:49:00.168Z,1.37
2019-05-12T01:51:52.335Z,2.30
2019-05-12T01:54:48.339Z,1.00
2019-05-12T01:57:39.047Z,1.00
2019-05-12T02:00:32.955Z,1.03
2019-05-12T02:03:23.395Z,1.30
2019-05-12T02:06:32.944Z,1.30
2019-05-12T02:09:30.457Z,1.10
2019-05-12T02:12:23.157Z,1.13
2019-05-12T02:15:13.402Z,1.73
2019-05-12T02:18:09.117Z,1.07
2019-05-12T02:21:03.794Z,1.50
2019-05-12T02:23:59.185Z,2.27
2019-05-12T02:26:49.557Z,2.00
2019-05-12T02:29:43.809Z,0.90
2019-05-12T02:32:48.146Z,1.30
2019-05-12T02:35:27.156Z,1.13
2019-05-12T02:38:21.008Z,1.30
2019-05-12T02:41:19.720Z,1.30
2019-05-12T02:44:14.906Z,1.50
2019-05-12T02:47:06.522Z,1.40
2019-05-12T02:50:05.144Z,1.13
2019-05-12T02:52:57.993Z,1.20
2019-05-12T02:55:54.080Z,0.93
2019-05-12T02:58:46.762Z,1.33
2019-05-12T03:01:45.238Z,2.80
2019-05-12T03:04:44.287Z,1.00
2019-05-12T03:07:38.239Z,0.90
2019-05-12T03:10:28.387Z,0.90
2019-05-12T03:13:24.989Z,1.00
2019-05-12T03:16:26.176Z,4.73
2019-05-12T03:19:19.556Z,1.00
2019-05-12T03:22:14.214Z,4.00
2019-05-12T03:25:20.047Z,1.30
2019-05-12T03:28:07.441Z,1.20
2019-05-12T03:30:57.586Z,1.47
2019-05-12T03:33:59.074Z,1.23
2019-05-12T03:36:51.864Z,1.37
2019-05-12T03:39:44.559Z,1.00
2019-05-12T03:42:35.213Z,0.90
2019-05-12T03:45:25.789Z,1.43
2019-05-12T03:48:20.464Z,0.90
2019-05-12T03:51:15.503Z,0.80
2019-05-12T03:54:06.009Z,3.70
2019-05-12T03:56:58.157Z,1.00
2019-05-12T03:59:55.412Z,1.00
2019-05-12T04:02:46.941Z,0.67
2019-05-12T04:05:36.900Z,0.90
2019-05-12T04:08:27.942Z,0.80
2019-05-12T04:11:20.151Z,1.10
2019-05-12T04:14:14.856Z,1.00
2019-05-12T04:17:07.426Z,1.00
2019-05-12T04:20:04.444Z,1.00
2019-05-12T04:22:54.739Z,1.40
2019-05-12T04:25:57.063Z,0.70
2019-05-12T04:28:46.133Z,1.27
2019-05-12T04:31:44.204Z,1.43
2019-05-12T04:34:34.264Z,0.87
2019-05-12T04:37:28.424Z,1.33
2019-05-12T04:40:24.885Z,2.00
2019-05-12T04:43:14.945Z,1.13
2019-05-12T04:46:08.761Z,1.47
2019-05-12T04:49:05.580Z,0.80
2019-05-12T04:51:59.393Z,0.90
2019-05-12T04:54:55.276Z,2.00
2019-05-12T04:57:45.494Z,1.10
2019-05-12T05:00:41.374Z,4.70
2019-05-12T05:03:34.989Z,0.80
2019-05-12T05:06:35.430Z,1.00
2019-05-12T05:09:35.039Z,1.53
2019-05-12T05:12:29.790Z,1.00
2019-05-12T05:15:19.474Z,1.53
2019-05-12T05:18:13.405Z,1.00
2019-05-12T05:21:06.247Z,4.70
2019-05-12T05:23:55.887Z,1.50
2019-05-12T05:26:47.719Z,1.70
2019-05-12T05:29:38.200Z,3.43
2019-05-12T05:32:38.146Z,3.70
2019-05-12T05:43:33.594Z,2.10
2019-05-12T05:46:48.310Z,2.70
2019-05-12T05:49:31.438Z,1.87
2019-05-12T05:57:28.276Z,1.83
2019-05-12T06:01:19.754Z,3.27
2019-05-12T06:07:39.082Z,1.93
2019-05-12T06:10:10.021Z,2.83
2019-05-12T06:17:04.422Z,2.87
2019-05-12T06:24:38.171Z,3.10
2019-05-12T06:37:23.661Z,3.23
2019-05-12T06:40:00.633Z,6.00
2019-05-12T06:42:34.185Z,2.87
2019-05-12T06:45:06.874Z,3.80
2019-05-12T06:47:45.426Z,2.80
2019-05-12T06:50:15.229Z,4.50
2019-05-12T06:52:49.727Z,3.03
2019-05-12T07:06:19.977Z,3.20
2019-05-12T07:09:05.973Z,2.77
2019-05-12T07:11:44.922Z,2.90
2019-05-12T07:31:30.307Z,3.10
2019-05-12T07:42:10.593Z,2.50
2019-05-12T07:49:01.010Z,2.67
2019-05-12T07:51:44.617Z,3.13
2019-05-12T07:54:16.850Z,2.70
2019-05-12T07:56:48.185Z,6.20
2019-05-12T08:03:19.080Z,2.60
2019-05-12T08:06:01.363Z,2.00
2019-05-12T08:08:29.763Z,2.00
2019-05-12T08:11:01.328Z,2.00
2019-05-12T08:20:24.987Z,2.10
2019-05-12T08:20:37.832Z,4.20
2019-05-12T08:23:10.713Z,3.37
2019-05-12T08:25:43.783Z,3.00
2019-05-12T08:28:19.314Z,3.30
2019-05-12T08:30:52.190Z,6.87
2019-05-12T08:33:29.184Z,7.03
2019-05-12T08:36:12.976Z,3.80
2019-05-12T08:38:44.480Z,3.00
2019-05-12T08:41:17.398Z,2.43
2019-05-12T08:43:54.853Z,3.23
2019-05-12T08:46:26.898Z,2.30
2019-05-12T08:49:02.220Z,3.20
2019-05-12T08:51:34.162Z,2.70
2019-05-12T08:54:08.164Z,4.63
2019-05-12T08:56:39.401Z,7.00
2019-05-12T08:59:17.574Z,2.60
2019-05-12T09:01:45.463Z,3.60
2019-05-12T09:04:18.456Z,2.10
2019-05-12T09:06:54.897Z,2.67
2019-05-12T09:09:24.319Z,3.30
2019-05-12T09:11:55.710Z,2.57
2019-05-12T09:14:27.715Z,2.77
2019-05-12T09:17:02.547Z,2.23
2019-05-12T09:19:33.228Z,2.83
2019-05-12T09:22:16.392Z,4.70
2019-05-12T09:24:39.059Z,2.40
2019-05-12T09:27:13.601Z,2.17
2019-05-12T09:29:45.586Z,2.47
2019-05-12T09:32:17.393Z,2.83
2019-05-12T09:34:56.483Z,2.53
2019-05-12T09:37:24.138Z,2.20
2019-05-12T09:39:55.746Z,1.83
2019-05-12T09:42:29.926Z,2.83
2019-05-12T09:45:06.021Z,2.67
2019-05-12T09:47:34.295Z,2.30
2019-05-12T09:50:09.723Z,2.43
2019-05-12T09:52:40.376Z,2.60
2019-05-12T09:55:11.932Z,2.50
2019-05-12T09:57:45.056Z,2.80
2019-05-12T10:00:16.650Z,1.57
2019-05-12T10:02:59.366Z,1.60
2019-05-12T10:05:30.416Z,1.93
2019-05-12T10:08:04.248Z,1.83
2019-05-12T10:10:40.272Z,1.43
2019-05-12T10:13:28.186Z,2.30
2019-05-12T10:15:58.663Z,1.50
2019-05-12T10:18:30.642Z,1.67
2019-05-12T10:21:02.211Z,1.60
2019-05-12T10:23:34.865Z,1.27
2019-05-12T10:26:10.410Z,1.37
2019-05-12T10:28:43.775Z,1.87
2019-05-12T10:31:18.613Z,1.73
2019-05-12T10:33:55.058Z,1.13
2019-05-12T10:36:24.389Z,3.03
2019-05-12T10:38:55.973Z,0.90
2019-05-12T10:41:27.832Z,1.33
2019-05-12T10:44:00.041Z,0.90
2019-05-12T10:46:32.533Z,1.10
2019-05-12T10:49:06.239Z,1.50
2019-05-12T10:51:37.588Z,1.53
2019-05-12T10:54:23.982Z,1.00
2019-05-12T10:56:56.190Z,1.27
2019-05-12T10:59:33.241Z,2.03
2019-05-12T11:02:34.686Z,2.03
2019-05-12T11:05:12.393Z,1.80
2019-05-12T11:08:11.318Z,1.20
2019-05-12T11:11:00.937Z,1.40
2019-05-12T11:13:33.889Z,1.40
2019-05-12T11:17:30.302Z,1.13
2019-05-12T11:20:04.208Z,1.20
2019-05-12T11:23:40.589Z,1.70
2019-05-12T11:26:24.706Z,1.40
2019-05-12T11:29:14.153Z,1.23
2019-05-12T11:31:45.801Z,0.97
2019-05-12T11:34:23.645Z,1.00
2019-05-12T11:37:19.122Z,1.60
2019-05-12T11:39:54.610Z,1.83
2019-05-12T11:42:39.217Z,1.30
2019-05-12T11:45:13.435Z,1.63
2019-05-12T11:48:14.451Z,1.40
2019-05-12T11:50:51.036Z,2.10
2019-05-12T11:53:21.894Z,1.00
2019-05-12T11:56:40.266Z,0.90
2019-05-12T11:59:36.390Z,1.63
2019-05-12T12:02:38.748Z,4.93
2019-05-12T12:08:44.151Z,5.43
2019-05-12T12:11:24.721Z,2.63
2019-05-12T12:17:56.621Z,1.60
2019-05-12T12:20:55.056Z,1.03
2019-05-12T12:23:24.041Z,1.67
2019-05-12T12:25:57.195Z,1.40
2019-05-12T12:28:40.115Z,5.90
2019-05-12T12:31:57.662Z,7.37
2019-05-12T12:34:30.423Z,3.90
2019-05-12T12:37:03.398Z,11.63
2019-05-12T12:39:35.386Z,1.93
2019-05-12T12:42:07.152Z,2.70
2019-05-12T12:45:40.553Z,1.97
2019-05-12T12:48:43.816Z,2.67
2019-05-12T12:51:17.550Z,3.27
2019-05-12T12:57:00.118Z,1.60
2019-05-12T12:59:57.055Z,2.10
2019-05-12T13:02:33.730Z,1.70
2019-05-12T13:05:23.829Z,2.77
2019-05-12T13:07:56.975Z,4.10
2019-05-12T13:11:14.714Z,1.87
2019-05-12T13:13:47.229Z,1.50
2019-05-12T13:17:08.896Z,2.70
2019-05-12T13:19:56.684Z,1.90
2019-05-12T13:23:01.055Z,1.50
2019-05-12T13:25:50.056Z,2.07
2019-05-12T13:28:19.121Z,1.53
2019-05-12T13:31:24.590Z,1.67
2019-05-12T13:34:17.531Z,1.53
2019-05-12T13:36:49.894Z,1.93
2019-05-12T13:39:58.502Z,1.60
2019-05-12T13:42:30.500Z,2.87
2019-05-12T13:45:15.997Z,2.37
2019-05-12T13:48:27.688Z,2.00
2019-05-12T13:51:23.993Z,1.60
2019-05-12T13:54:14.376Z,1.53
2019-05-12T13:57:53.169Z,1.60
2019-05-12T14:01:17.181Z,2.13
2019-05-12T14:04:04.004Z,1.60
2019-05-12T14:07:00.154Z,1.20
2019-05-12T14:10:24.870Z,1.63
2019-05-12T14:13:21.634Z,2.00
2019-05-12T14:16:11.434Z,1.40
2019-05-12T14:19:03.651Z,1.53
2019-05-12T14:21:48.013Z,1.80
2019-05-12T14:24:54.340Z,2.10
2019-05-12T14:28:45.582Z,2.50
2019-05-12T14:31:29.222Z,1.50
2019-05-12T14:33:56.285Z,2.40
2019-05-12T14:36:40.599Z,2.17
2019-05-12T14:39:16.788Z,3.70
2019-05-12T14:41:53.042Z,1.73
2019-05-12T14:45:41.393Z,1.97
2019-05-12T14:48:28.352Z,1.60
2019-05-12T14:51:49.320Z,1.57
2019-05-12T14:54:21.123Z,1.60
2019-05-12T14:56:57.750Z,1.83
2019-05-12T14:59:41.057Z,1.53
2019-05-12T15:02:40.891Z,1.93
2019-05-12T15:05:41.406Z,1.60
2019-05-12T15:08:44.066Z,1.60
2019-05-12T15:11:54.851Z,1.63
2019-05-12T15:14:57.241Z,2.00
2019-05-12T15:17:46.891Z,2.13
2019-05-12T15:20:20.304Z,2.50
2019-05-12T15:22:58.620Z,1.50
2019-05-12T15:25:54.468Z,1.60
2019-05-12T15:28:57.813Z,1.83
2019-05-12T15:31:29.994Z,3.77
2019-05-12T15:34:23.618Z,1.70
2019-05-12T15:37:05.795Z,1.90
2019-05-12T15:39:39.755Z,3.20
2019-05-12T15:42:14.231Z,3.10
2019-05-12T15:44:55.098Z,2.70
2019-05-12T15:51:58.449Z,2.80
2019-05-12T16:30:07.483Z,2.00
2019-05-12T16:37:05.549Z,3.00
2019-05-12T16:43:59.428Z,2.23
2019-05-12T16:50:36.930Z,2.33
2019-05-12T17:12:14.701Z,3.07
2019-05-12T17:18:46.949Z,3.67
2019-05-12T17:22:04.795Z,3.57
2019-05-12T17:24:36.248Z,3.20
2019-05-12T17:27:17.965Z,4.80
2019-05-12T17:33:15.929Z,3.37
2019-05-12T17:35:44.750Z,2.87
2019-05-12T17:38:19.729Z,3.53
2019-05-12T17:40:50.326Z,2.70
2019-05-12T17:43:24.404Z,3.00
2019-05-12T17:46:18.327Z,3.70
2019-05-12T17:49:29.254Z,4.60
2019-05-12T17:53:00.467Z,4.27
2019-05-12T17:55:29.966Z,3.37
2019-05-12T17:58:13.775Z,3.13
2019-05-12T18:00:51.830Z,3.43
2019-05-12T18:04:08.007Z,3.60
2019-05-12T18:07:55.532Z,3.20
2019-05-12T18:10:32.615Z,3.40
2019-05-12T18:13:17.528Z,3.83
2019-05-12T18:15:47.714Z,4.03
2019-05-12T18:18:43.512Z,4.40
2019-05-12T18:21:21.806Z,3.50
2019-05-12T18:23:48.833Z,3.77
2019-05-12T18:26:20.207Z,4.53
2019-05-12T18:28:54.418Z,3.70
2019-05-12T18:31:55.596Z,4.93
2019-05-12T18:34:27.346Z,3.70
2019-05-12T18:36:59.920Z,4.37
2019-05-12T18:39:34.274Z,4.00
2019-05-12T18:42:05.499Z,5.00
2019-05-12T18:44:37.255Z,3.47
2019-05-12T18:47:23.295Z,4.23
2019-05-12T18:50:38.044Z,3.70
2019-05-12T18:53:45.780Z,4.77
2019-05-12T19:00:13.799Z,5.03
2019-05-12T19:03:26.733Z,4.60
2019-05-12T19:06:35.180Z,5.73
2019-05-12T19:09:08.900Z,4.40
2019-05-12T19:11:41.566Z,4.80
2019-05-12T19:14:35.377Z,4.30
2019-05-12T19:17:02.887Z,4.70
2019-05-12T19:19:59.812Z,4.97
2019-05-12T19:22:33.699Z,5.83
2019-05-12T19:25:08.786Z,5.67
2019-05-12T19:27:40.554Z,6.43
2019-05-12T19:30:13.832Z,5.70
2019-05-12T19:32:46.749Z,5.10
2019-05-12T19:35:20.391Z,5.80
2019-05-12T19:37:54.312Z,5.70
2019-05-12T19:40:32.779Z,5.70
2019-05-12T19:43:14.242Z,6.53
2019-05-12T19:45:46.213Z,5.53
2019-05-12T19:48:24.938Z,9.37
2019-05-12T19:50:56.903Z,6.30
2019-05-12T19:53:29.365Z,6.70
2019-05-12T19:56:03.601Z,6.40
2019-05-12T19:58:34.827Z,6.20
2019-05-12T20:01:37.801Z,5.70
2019-05-12T20:04:09.795Z,5.50
2019-05-12T20:06:43.969Z,7.27
2019-05-12T20:09:19.602Z,5.10
2019-05-12T20:12:19.231Z,6.27
2019-05-12T20:14:56.862Z,4.97
2019-05-12T20:17:41.435Z,4.53
2019-05-12T20:20:35.783Z,4.47
2019-05-12T20:23:04.367Z,5.53
2019-05-12T20:25:38.221Z,5.20
2019-05-12T20:29:54.145Z,10.60
2019-05-12T20:33:10.371Z,5.70
2019-05-12T20:35:50.987Z,4.00
2019-05-12T20:38:34.046Z,9.90
2019-05-12T20:41:04.577Z,6.83
2019-05-12T20:43:38.231Z,5.90
2019-05-12T20:46:15.429Z,4.73
2019-05-12T20:49:01.160Z,5.90
2019-05-12T20:51:34.005Z,4.37
2019-05-12T20:54:16.221Z,6.07
2019-05-12T20:57:09.795Z,5.00
2019-05-12T20:59:41.305Z,4.93
2019-05-12T21:02:14.108Z,5.43
2019-05-12T21:04:59.839Z,4.70
2019-05-12T21:07:21.901Z,3.87
2019-05-12T21:09:53.262Z,5.27
2019-05-12T21:12:26.450Z,4.53
2019-05-12T21:15:12.693Z,4.43
2019-05-12T21:17:40.516Z,6.80
2019-05-12T21:20:11.840Z,3.83
2019-05-12T21:22:45.596Z,4.63
2019-05-12T21:25:37.210Z,8.73
2019-05-12T21:28:14.655Z,8.33
2019-05-12T21:30:48.106Z,5.23
2019-05-12T21:33:19.185Z,4.97
2019-05-12T21:35:54.964Z,4.40
2019-05-12T21:38:29.538Z,6.07
2019-05-12T21:41:02.173Z,7.17
2019-05-12T21:43:33.227Z,4.17
2019-05-12T21:46:07.790Z,4.33
2019-05-12T21:48:37.875Z,6.37
2019-05-12T21:51:18.412Z,3.80
2019-05-12T21:53:50.462Z,3.33
2019-05-12T21:56:24.297Z,5.60
2019-05-12T21:59:03.778Z,3.50
2019-05-12T22:01:43.704Z,5.00
2019-05-12T22:04:16.872Z,7.83
2019-05-12T22:06:51.333Z,4.10
2019-05-12T22:09:34.887Z,5.00
2019-05-12T22:12:03.286Z,3.70
2019-05-12T22:14:40.770Z,4.30
2019-05-12T22:17:13.526Z,6.57
2019-05-12T22:19:45.026Z,5.83
2019-05-12T22:22:19.747Z,9.00
2019-05-12T22:24:53.641Z,7.00
2019-05-12T22:27:30.838Z,7.73
2019-05-12T22:30:01.114Z,5.47
2019-05-12T22:32:33.108Z,6.20
2019-05-12T22:35:04.740Z,7.03
2019-05-12T22:37:37.539Z,8.60
2019-05-12T22:40:15.148Z,8.80
2019-05-12T22:42:44.438Z,6.37
2019-05-12T22:45:15.914Z,3.53
2019-05-12T22:47:55.184Z,3.90
2019-05-12T22:50:27.333Z,4.00
2019-05-12T22:52:58.972Z,4.10
2019-05-12T22:55:32.587Z,10.13
2019-05-12T22:58:03.532Z,11.70
2019-05-12T23:00:34.964Z,4.73
2019-05-12T23:03:11.795Z,6.20
2019-05-12T23:05:40.501Z,4.97
2019-05-12T23:08:14.164Z,5.40
2019-05-12T23:10:51.242Z,9.00
2019-05-12T23:13:19.752Z,7.40
2019-05-12T23:15:51.062Z,7.67
2019-05-12T23:18:28.750Z,6.63
2019-05-12T23:20:56.124Z,4.20
2019-05-12T23:23:28.365Z,7.63
2019-05-12T23:26:00.718Z,8.40
2019-05-12T23:28:34.340Z,7.97
2019-05-12T23:31:06.106Z,4.70
2019-05-12T23:33:37.447Z,5.23
2019-05-12T23:36:09.742Z,5.53
2019-05-12T23:38:43.919Z,7.23
2019-05-12T23:41:15.110Z,4.63
2019-05-12T23:43:50.872Z,9.63
2019-05-12T23:46:23.575Z,5.20
2019-05-12T23:48:55.631Z,6.33
2019-05-12T23:51:27.034Z,7.23
2019-05-12T23:53:59.099Z,8.50
2019-05-12T23:56:30.763Z,6.23
2019-05-12T23:59:04.309Z,6.93
